createdAt,value
2016-04-07T00:00:10.870Z,90.05
2016-04-07T00:01:10.871Z,90.43
2016-04-07T00:02:10.858Z,90.24
2016-04-07T00:03:10.861Z,90.24
2016-04-07T00:04:10.864Z,90.24
2016-04-07T00:05:10.866Z,90.15
2016-04-07T00:06:10.869Z,90.24
2016-04-07T00:07:10.872Z,90.05
2016-04-07T00:08:10.891Z,89.96
2016-04-07T00:09:10.877Z,89.96
2016-04-07T00:10:10.880Z,89.96
2016-04-07T00:11:10.867Z,89.96
2016-04-07T00:12:10.886Z,89.96
2016-04-07T00:13:10.872Z,90.34
2016-04-07T00:14:10.860Z,90.24
2016-04-07T00:15:10.877Z,90.24
2016-04-07T00:16:10.889Z,90.24
2016-04-07T00:17:10.936Z,90.24
2016-04-07T00:18:10.983Z,90.24
2016-04-07T00:19:11.014Z,90.05
2016-04-07T00:20:10.905Z,90.15
2016-04-07T00:21:11.092Z,90.05
2016-04-07T00:22:11.111Z,89.96
2016-04-07T00:23:11.129Z,89.96
2016-04-07T00:24:11.147Z,90.34
2016-04-07T00:25:11.150Z,90.34
2016-04-07T00:26:11.163Z,90.34
2016-04-07T00:27:11.187Z,90.72
2016-04-07T00:28:11.179Z,90.43
2016-04-07T00:29:11.174Z,90.43
2016-04-07T00:30:11.181Z,90.81
2016-04-07T00:31:11.188Z,90.91
2016-04-07T00:32:11.193Z,90.81
2016-04-07T00:33:11.197Z,90.81
2016-04-07T00:34:11.185Z,90.43
2016-04-07T00:35:11.206Z,90.62
2016-04-07T00:36:11.194Z,91
2016-04-07T00:37:11.198Z,91
2016-04-07T00:38:11.201Z,91
2016-04-07T00:39:11.205Z,90.91
2016-04-07T00:40:11.208Z,91.28
2016-04-07T00:41:11.197Z,91.28
2016-04-07T00:42:11.199Z,91
2016-04-07T00:43:11.203Z,91.09
2016-04-07T00:44:11.206Z,91
2016-04-07T00:45:11.208Z,91.19
2016-04-07T00:46:11.196Z,90.81
2016-04-07T00:47:11.245Z,90.91
2016-04-07T00:48:11.231Z,91
2016-04-07T00:49:11.203Z,91.19
2016-04-07T00:50:11.206Z,91
2016-04-07T00:51:11.193Z,91.19
2016-04-07T00:52:11.195Z,91.28
2016-04-07T00:53:11.198Z,91.28
2016-04-07T00:54:11.201Z,91
2016-04-07T00:55:11.204Z,91
2016-04-07T00:56:11.206Z,91
2016-04-07T00:57:11.209Z,91.09
2016-04-07T00:58:11.197Z,91.38
2016-04-07T00:59:11.183Z,91
2016-04-07T01:00:11.202Z,90.91
2016-04-07T01:01:11.205Z,91.38
2016-04-07T01:02:11.208Z,91.19
2016-04-07T01:03:11.194Z,91.38
2016-04-07T01:04:11.197Z,91.09
2016-04-07T01:05:11.200Z,91.33
2016-04-07T01:06:11.203Z,90.95
2016-04-07T01:07:11.189Z,91.14
2016-04-07T01:08:11.192Z,91.14
2016-04-07T01:09:11.195Z,90.95
2016-04-07T01:10:11.197Z,90.86
2016-04-07T01:11:11.185Z,90.95
2016-04-07T01:12:11.188Z,90.95
2016-04-07T01:13:11.190Z,91.14
2016-04-07T01:14:11.193Z,91.24
2016-04-07T01:15:11.196Z,91.14
2016-04-07T01:16:11.198Z,91.52
2016-04-07T01:17:11.184Z,91.62
2016-04-07T01:18:11.187Z,91.62
2016-04-07T01:19:11.190Z,92.38
2016-04-07T01:20:11.193Z,91.95
2016-04-07T01:21:11.196Z,91.95
2016-04-07T01:22:11.183Z,92.23
2016-04-07T01:23:11.186Z,92.14
2016-04-07T01:24:11.188Z,92.23
2016-04-07T01:25:11.191Z,92.14
2016-04-07T01:26:11.178Z,92.42
2016-04-07T01:27:11.181Z,92.04
2016-04-07T01:28:11.199Z,92.71
2016-04-07T01:29:11.186Z,92.33
2016-04-07T01:30:11.173Z,92.33
2016-04-07T01:31:11.191Z,92.23
2016-04-07T01:32:11.178Z,92.33
2016-04-07T01:33:11.181Z,92.33
2016-04-07T01:34:11.183Z,92.04
2016-04-07T01:35:11.186Z,92.04
2016-04-07T01:36:11.174Z,92.14
2016-04-07T01:37:11.177Z,91.85
2016-04-07T01:38:11.195Z,92.04
2016-04-07T01:39:11.182Z,92.33
2016-04-07T01:40:11.185Z,92.33
2016-04-07T01:41:11.187Z,92.04
2016-04-07T01:42:11.174Z,92.23
2016-04-07T01:43:11.177Z,92.42
2016-04-07T01:44:11.180Z,92.33
2016-04-07T01:45:11.182Z,92.33
2016-04-07T01:46:11.185Z,92.23
2016-04-07T01:47:11.187Z,92.04
2016-04-07T01:48:11.190Z,92.14
2016-04-07T01:49:11.177Z,92.33
2016-04-07T01:50:11.180Z,92.04
2016-04-07T01:51:11.167Z,92.04
2016-04-07T01:52:11.185Z,92.14
2016-04-07T01:53:11.188Z,92.42
2016-04-07T01:54:11.175Z,92.33
2016-04-07T01:55:11.178Z,92.23
2016-04-07T01:56:11.165Z,92.14
2016-04-07T01:57:11.167Z,92.8
2016-04-07T01:58:11.170Z,92.9
2016-04-07T01:59:11.172Z,92.9
2016-04-07T02:00:11.175Z,92.23
2016-04-07T02:01:11.178Z,91.95
2016-04-07T02:02:11.166Z,92.14
2016-04-07T02:03:11.168Z,92.52
2016-04-07T02:04:11.171Z,91.95
2016-04-07T02:05:11.174Z,92.23
2016-04-07T02:06:11.176Z,92.33
2016-04-07T02:07:11.163Z,92.23
2016-04-07T02:08:11.166Z,92.14
2016-04-07T02:09:11.185Z,92.14
2016-04-07T02:10:11.156Z,92.33
2016-04-07T02:11:11.174Z,92.23
2016-04-07T02:12:11.176Z,91.66
2016-04-07T02:13:11.164Z,91.95
2016-04-07T02:14:11.166Z,91.95
2016-04-07T02:15:11.169Z,91.76
2016-04-07T02:16:11.157Z,91.57
2016-04-07T02:17:11.159Z,91.57
2016-04-07T02:18:11.162Z,91.76
2016-04-07T02:19:11.165Z,92.14
2016-04-07T02:20:11.167Z,91.71
2016-04-07T02:21:11.154Z,91.81
2016-04-07T02:22:11.157Z,91.81
2016-04-07T02:23:11.159Z,92
2016-04-07T02:24:11.162Z,91.81
2016-04-07T02:25:11.149Z,91.81
2016-04-07T02:26:11.152Z,91.81
2016-04-07T02:27:11.154Z,92
2016-04-07T02:28:11.173Z,92.19
2016-04-07T02:29:11.160Z,91.81
2016-04-07T02:30:11.163Z,91.62
2016-04-07T02:31:11.150Z,91.62
2016-04-07T02:32:11.152Z,91.43
2016-04-07T02:33:11.202Z,92.19
2016-04-07T02:34:11.158Z,92.19
2016-04-07T02:35:11.161Z,92.28
2016-04-07T02:36:11.164Z,92.28
2016-04-07T02:37:11.150Z,92.38
2016-04-07T02:38:11.152Z,92
2016-04-07T02:39:11.155Z,92.19
2016-04-07T02:40:11.158Z,92.09
2016-04-07T02:41:11.160Z,91.9
2016-04-07T02:42:11.148Z,92.28
2016-04-07T02:43:11.151Z,92.19
2016-04-07T02:44:11.154Z,92.28
2016-04-07T02:45:11.156Z,92.28
2016-04-07T02:46:11.143Z,92.19
2016-04-07T02:47:11.146Z,91.9
2016-04-07T02:48:11.149Z,92
2016-04-07T02:49:11.151Z,92.85
2016-04-07T02:50:11.154Z,92.19
2016-04-07T02:51:11.141Z,92.66
2016-04-07T02:52:11.143Z,92.85
2016-04-07T02:53:11.146Z,92.47
2016-04-07T02:54:11.149Z,92.47
2016-04-07T02:55:11.137Z,92.76
2016-04-07T02:56:11.154Z,92.57
2016-04-07T02:57:11.142Z,92.66
2016-04-07T02:58:11.144Z,92.57
2016-04-07T02:59:11.147Z,92.47
2016-04-07T03:00:11.134Z,92.76
2016-04-07T03:01:11.137Z,92.38
2016-04-07T03:02:11.139Z,92.66
2016-04-07T03:03:11.142Z,92.28
2016-04-07T03:04:11.145Z,92.57
2016-04-07T03:05:11.148Z,92.47
2016-04-07T03:06:11.134Z,93.23
2016-04-07T03:07:11.137Z,93.42
2016-04-07T03:08:11.125Z,92.94
2016-04-07T03:09:11.142Z,93.08
2016-04-07T03:10:11.145Z,93.27
2016-04-07T03:11:11.133Z,93.27
2016-04-07T03:12:11.136Z,93.27
2016-04-07T03:13:11.137Z,93.08
2016-04-07T03:14:11.140Z,92.71
2016-04-07T03:15:11.127Z,92.71
2016-04-07T03:16:11.146Z,92.71
2016-04-07T03:17:11.132Z,93.08
2016-04-07T03:18:11.135Z,93.27
2016-04-07T03:19:11.137Z,93.08
2016-04-07T03:20:11.126Z,93.27
2016-04-07T03:21:11.128Z,92.52
2016-04-07T03:22:11.131Z,92.71
2016-04-07T03:23:11.133Z,92.61
2016-04-07T03:24:11.136Z,92.71
2016-04-07T03:25:11.139Z,92.71
2016-04-07T03:26:11.142Z,92.33
2016-04-07T03:27:11.128Z,92.71
2016-04-07T03:28:11.131Z,92.23
2016-04-07T03:29:11.134Z,92.9
2016-04-07T03:30:11.136Z,92.9
2016-04-07T03:31:11.123Z,92.04
2016-04-07T03:32:11.126Z,91.95
2016-04-07T03:33:11.145Z,92.71
2016-04-07T03:34:11.131Z,92.04
2016-04-07T03:35:11.134Z,92.9
2016-04-07T03:36:11.122Z,92.52
2016-04-07T03:37:11.125Z,92.52
2016-04-07T03:38:11.127Z,92.71
2016-04-07T03:39:11.114Z,92.71
2016-04-07T03:40:11.117Z,92.71
2016-04-07T03:41:11.119Z,93.27
2016-04-07T03:42:11.122Z,93.18
2016-04-07T03:43:11.124Z,92.9
2016-04-07T03:44:11.128Z,93.37
2016-04-07T03:45:11.114Z,92.99
2016-04-07T03:46:11.117Z,93.56
2016-04-07T03:47:11.136Z,93.56
2016-04-07T03:48:11.121Z,93.32
2016-04-07T03:49:11.109Z,93.7
2016-04-07T03:50:11.112Z,93.8
2016-04-07T03:51:11.115Z,93.32
2016-04-07T03:52:11.117Z,93.41
2016-04-07T03:53:11.121Z,93.61
2016-04-07T03:54:11.124Z,93.41
2016-04-07T03:55:11.157Z,93.37
2016-04-07T03:56:11.112Z,93.37
2016-04-07T03:57:11.131Z,93.18
2016-04-07T03:58:18.821Z,93.37
2016-04-07T03:59:11.120Z,93.37
2016-04-07T04:00:11.108Z,92.9
2016-04-07T04:01:11.111Z,93.18
2016-04-07T04:02:11.113Z,93.27
2016-04-07T04:03:11.116Z,92.99
2016-04-07T04:04:11.103Z,93.08
2016-04-07T04:05:11.106Z,92.99
2016-04-07T04:06:11.108Z,93.37
2016-04-07T04:07:11.095Z,93.27
2016-04-07T04:08:11.098Z,92.61
2016-04-07T04:09:11.164Z,92.71
2016-04-07T04:10:11.103Z,93.08
2016-04-07T04:11:11.106Z,92.61
2016-04-07T04:12:11.109Z,92.09
2016-04-07T04:13:11.096Z,92.33
2016-04-07T04:14:11.114Z,92.33
2016-04-07T04:15:11.102Z,92.14
2016-04-07T04:16:11.104Z,92.14
2016-04-07T04:17:11.107Z,92.14
2016-04-07T04:18:11.110Z,92.23
2016-04-07T04:19:11.097Z,91.66
2016-04-07T04:20:11.099Z,91.75
2016-04-07T04:21:11.102Z,92.14
2016-04-07T04:22:11.105Z,91.75
2016-04-07T04:23:11.107Z,91.66
2016-04-07T04:24:11.157Z,91.85
2016-04-07T04:25:11.113Z,91.75
2016-04-07T04:26:11.209Z,91.56
2016-04-07T04:27:11.087Z,91.19
2016-04-07T04:28:11.090Z,91.19
2016-04-07T04:29:11.108Z,90.9
2016-04-07T04:30:11.094Z,91.33
2016-04-07T04:31:11.097Z,91.24
2016-04-07T04:32:11.100Z,91.33
2016-04-07T04:33:11.103Z,91.33
2016-04-07T04:34:11.090Z,90.86
2016-04-07T04:35:11.092Z,90.95
2016-04-07T04:36:11.095Z,91.33
2016-04-07T04:37:11.097Z,91.33
2016-04-07T04:38:11.085Z,91.14
2016-04-07T04:39:11.088Z,91.33
2016-04-07T04:40:11.091Z,91.33
2016-04-07T04:41:11.094Z,91.33
2016-04-07T04:42:11.096Z,91.24
2016-04-07T04:43:11.082Z,91.61
2016-04-07T04:44:11.085Z,91.71
2016-04-07T04:45:11.088Z,91.8
2016-04-07T04:46:11.091Z,91.33
2016-04-07T04:47:11.093Z,91.8
2016-04-07T04:48:11.096Z,91.52
2016-04-07T04:49:11.083Z,91.42
2016-04-07T04:50:11.086Z,91.61
2016-04-07T04:51:11.088Z,91.71
2016-04-07T04:52:11.076Z,91.61
2016-04-07T04:53:11.079Z,91.9
2016-04-07T04:54:11.097Z,91.9
2016-04-07T04:55:11.084Z,91.9
2016-04-07T04:56:11.102Z,91.9
2016-04-07T04:57:11.074Z,91.8
2016-04-07T04:58:11.076Z,91.8
2016-04-07T04:59:11.079Z,91.8
2016-04-07T05:00:11.081Z,91.8
2016-04-07T05:01:11.084Z,91.38
2016-04-07T05:02:11.087Z,91.33
2016-04-07T05:03:11.074Z,91.19
2016-04-07T05:04:11.076Z,91.38
2016-04-07T05:05:11.079Z,91.38
2016-04-07T05:06:11.098Z,91.38
2016-04-07T05:07:11.085Z,91.28
2016-04-07T05:08:11.072Z,91.19
2016-04-07T05:09:11.247Z,90.9
2016-04-07T05:10:11.092Z,91.09
2016-04-07T05:11:11.080Z,90.9
2016-04-07T05:12:11.083Z,91.09
2016-04-07T05:13:11.085Z,91.28
2016-04-07T05:14:11.073Z,91
2016-04-07T05:15:11.075Z,91.38
2016-04-07T05:16:11.078Z,91.38
2016-04-07T05:17:11.080Z,91.38
2016-04-07T05:18:11.083Z,91.38
2016-04-07T05:19:11.071Z,91.38
2016-04-07T05:20:11.073Z,91.28
2016-04-07T05:21:11.076Z,91.28
2016-04-07T05:22:11.079Z,91.19
2016-04-07T05:23:11.065Z,91.56
2016-04-07T05:24:11.130Z,91.19
2016-04-07T05:25:11.070Z,91.28
2016-04-07T05:26:11.073Z,91.19
2016-04-07T05:27:11.076Z,91.47
2016-04-07T05:28:11.063Z,91.42
2016-04-07T05:29:11.066Z,91.33
2016-04-07T05:30:11.225Z,91.42
2016-04-07T05:31:11.071Z,91.42
2016-04-07T05:32:11.058Z,91.42
2016-04-07T05:33:11.061Z,91.24
2016-04-07T05:34:11.064Z,91.42
2016-04-07T05:35:11.067Z,91.42
2016-04-07T05:36:11.069Z,91.14
2016-04-07T05:37:11.056Z,91.19
2016-04-07T05:38:11.075Z,91.09
2016-04-07T05:39:11.250Z,91.28
2016-04-07T05:40:11.064Z,91.56
2016-04-07T05:41:11.051Z,91.19
2016-04-07T05:42:11.053Z,90.9
2016-04-07T05:43:11.056Z,90.61
2016-04-07T05:44:11.059Z,90.61
2016-04-07T05:45:11.062Z,90.52
2016-04-07T05:46:11.064Z,89.95
2016-04-07T05:47:11.052Z,89.76
2016-04-07T05:48:11.055Z,89.8
2016-04-07T05:49:11.073Z,89.23
2016-04-07T05:50:11.060Z,89.42
2016-04-07T05:51:11.063Z,88.67
2016-04-07T05:52:11.066Z,88.28
2016-04-07T05:53:11.052Z,88.38
2016-04-07T05:54:11.321Z,87.62
2016-04-07T05:55:11.058Z,87.52
2016-04-07T05:56:11.046Z,87.34
2016-04-07T05:57:11.063Z,86.95
2016-04-07T05:58:11.050Z,87.34
2016-04-07T05:59:11.053Z,87.34
2016-04-07T06:00:11.056Z,86.95
2016-04-07T06:01:11.058Z,87.05
2016-04-07T06:02:11.045Z,86.52
2016-04-07T06:03:11.048Z,86.05
2016-04-07T06:04:11.051Z,85.95
2016-04-07T06:05:11.053Z,85.76
2016-04-07T06:06:11.040Z,84.81
2016-04-07T06:07:11.042Z,84.43
2016-04-07T06:08:11.045Z,83.67
2016-04-07T06:09:10.959Z,83.19
2016-04-07T06:10:11.056Z,82.34
2016-04-07T06:11:11.044Z,82.24
2016-04-07T06:12:11.046Z,81.58
2016-04-07T06:13:11.080Z,81.14
2016-04-07T06:14:11.036Z,81.05
2016-04-07T06:15:11.038Z,79.62
2016-04-07T06:16:11.057Z,80
2016-04-07T06:17:11.044Z,79.33
2016-04-07T06:18:11.046Z,79.14
2016-04-07T06:19:11.033Z,78.67
2016-04-07T06:20:11.036Z,78.48
2016-04-07T06:21:11.039Z,78.1
2016-04-07T06:22:11.198Z,77.72
2016-04-07T06:23:11.044Z,77.05
2016-04-07T06:24:11.062Z,77.24
2016-04-07T06:25:11.034Z,77.05
2016-04-07T06:26:11.036Z,76.39
2016-04-07T06:27:11.039Z,76.29
2016-04-07T06:28:11.042Z,75.91
2016-04-07T06:29:11.029Z,76.01
2016-04-07T06:30:11.047Z,75.72
2016-04-07T06:31:11.034Z,75.05
2016-04-07T06:32:11.037Z,75.53
2016-04-07T06:33:11.039Z,74.99
2016-04-07T06:34:11.026Z,74.62
2016-04-07T06:35:11.029Z,74.8
2016-04-07T06:36:11.032Z,74.52
2016-04-07T06:37:11.034Z,74.24
2016-04-07T06:38:11.037Z,73.95
2016-04-07T06:39:11.086Z,73.85
2016-04-07T06:40:11.028Z,73.47
2016-04-07T06:41:11.030Z,73.19
2016-04-07T06:42:11.033Z,72.71
2016-04-07T06:43:11.020Z,72.85
2016-04-07T06:44:11.023Z,72.27
2016-04-07T06:45:11.025Z,72.08
2016-04-07T06:46:11.027Z,71.89
2016-04-07T06:47:11.046Z,71.7
2016-04-07T06:48:11.033Z,71.61
2016-04-07T06:49:11.021Z,71.42
2016-04-07T06:50:11.024Z,70.75
2016-04-07T06:51:11.026Z,70.75
2016-04-07T06:52:11.029Z,69.99
2016-04-07T06:53:11.031Z,70.08
2016-04-07T06:54:11.049Z,69.79
2016-04-07T06:55:11.020Z,69.7
2016-04-07T06:56:11.039Z,69.89
2016-04-07T06:57:11.026Z,69.51
2016-04-07T06:58:11.029Z,69.32
2016-04-07T06:59:11.032Z,69.42
2016-04-07T07:00:11.018Z,69.13
2016-04-07T07:01:11.021Z,68.46
2016-04-07T07:02:11.023Z,68.75
2016-04-07T07:03:11.026Z,68.71
2016-04-07T07:04:11.029Z,69.48
2016-04-07T07:05:11.032Z,69.13
2016-04-07T07:06:11.035Z,69.42
2016-04-07T07:07:10.865Z,68.94
2016-04-07T07:08:11.025Z,68.75
2016-04-07T07:09:11.028Z,69.13
2016-04-07T07:10:11.014Z,68.84
2016-04-07T07:11:11.017Z,69.04
2016-04-07T07:12:11.019Z,68.94
2016-04-07T07:13:11.022Z,68.84
2016-04-07T07:14:11.025Z,68.75
2016-04-07T07:15:11.028Z,68.75
2016-04-07T07:16:11.015Z,68.75
2016-04-07T07:17:10.908Z,68.75
2016-04-07T07:18:11.020Z,68.18
2016-04-07T07:19:11.022Z,68.27
2016-04-07T07:20:11.025Z,68.27
2016-04-07T07:21:11.028Z,67.99
2016-04-07T07:22:11.015Z,68.12
2016-04-07T07:23:11.018Z,68.21
2016-04-07T07:24:11.020Z,67.35
2016-04-07T07:25:11.023Z,67.93
2016-04-07T07:26:11.010Z,67.16
2016-04-07T07:27:11.029Z,67.07
2016-04-07T07:28:11.016Z,67.16
2016-04-07T07:29:11.018Z,66.31
2016-04-07T07:30:10.865Z,66.78
2016-04-07T07:31:11.023Z,66.31
2016-04-07T07:32:11.011Z,66.31
2016-04-07T07:33:11.019Z,66.11
2016-04-07T07:34:11.021Z,65.83
2016-04-07T07:35:11.024Z,66.11
2016-04-07T07:36:11.012Z,65.64
2016-04-07T07:37:11.015Z,65.73
2016-04-07T07:38:11.018Z,65.07
2016-04-07T07:39:11.051Z,65.1
2016-04-07T07:40:11.012Z,65
2016-04-07T07:41:11.014Z,64.81
2016-04-07T07:42:11.017Z,64.34
2016-04-07T07:43:11.036Z,64.15
2016-04-07T07:44:11.022Z,64.34
2016-04-07T07:45:11.025Z,63.86
2016-04-07T07:46:10.872Z,63.29
2016-04-07T07:47:11.015Z,63
2016-04-07T07:48:11.018Z,63.29
2016-04-07T07:49:11.020Z,62.91
2016-04-07T07:50:11.023Z,62.72
2016-04-07T07:51:11.025Z,61.96
2016-04-07T07:52:10.872Z,61.57
2016-04-07T07:53:11.015Z,61.29
2016-04-07T07:54:11.018Z,61.57
2016-04-07T07:55:11.021Z,61.6
2016-04-07T07:56:11.023Z,61.51
2016-04-07T07:57:11.026Z,61.22
2016-04-07T07:58:11.013Z,61.41
2016-04-07T07:59:11.016Z,61.13
2016-04-07T08:00:10.879Z,61.22
2016-04-07T08:01:11.021Z,61.13
2016-04-07T08:02:11.024Z,60.84
2016-04-07T08:03:11.027Z,61.32
2016-04-07T08:04:11.014Z,60.75
2016-04-07T08:05:11.017Z,60.75
2016-04-07T08:06:11.019Z,60.08
2016-04-07T08:07:11.022Z,59.99
2016-04-07T08:08:11.025Z,59.99
2016-04-07T08:09:11.028Z,60.08
2016-04-07T08:10:11.015Z,60.08
2016-04-07T08:11:11.017Z,59.99
2016-04-07T08:12:11.020Z,59.99
2016-04-07T08:13:11.022Z,59.89
2016-04-07T08:14:11.025Z,59.89
2016-04-07T08:15:11.028Z,59.51
2016-04-07T08:16:11.031Z,59.31
2016-04-07T08:17:11.018Z,59.25
2016-04-07T08:18:11.020Z,59.06
2016-04-07T08:19:11.023Z,58.87
2016-04-07T08:20:11.025Z,58.77
2016-04-07T08:21:11.028Z,58.68
2016-04-07T08:22:11.031Z,57.82
2016-04-07T08:23:11.033Z,57.65
2016-04-07T08:24:11.036Z,57.46
2016-04-07T08:25:11.023Z,56.8
2016-04-07T08:26:11.041Z,56.99
2016-04-07T08:27:11.029Z,56.51
2016-04-07T08:28:11.032Z,56.32
2016-04-07T08:29:11.035Z,56.51
2016-04-07T08:30:11.038Z,56.73
2016-04-07T08:31:11.040Z,56.06
2016-04-07T08:32:11.027Z,56.25
2016-04-07T08:33:11.045Z,55.4
2016-04-07T08:34:11.032Z,55.04
2016-04-07T08:35:11.034Z,54.85
2016-04-07T08:36:10.881Z,54.56
2016-04-07T08:37:11.026Z,54.11
2016-04-07T08:38:11.044Z,53.73
2016-04-07T08:39:11.063Z,52.96
2016-04-07T08:40:11.049Z,53.06
2016-04-07T08:41:11.052Z,52.48
2016-04-07T08:42:11.054Z,52.29
2016-04-07T08:43:11.041Z,51.93
2016-04-07T08:44:11.044Z,51.46
2016-04-07T08:45:11.047Z,51.07
2016-04-07T08:46:11.035Z,50.98
2016-04-07T08:47:11.037Z,51.07
2016-04-07T08:48:11.040Z,51.07
2016-04-07T08:49:11.042Z,50.7
2016-04-07T08:50:11.045Z,50.79
2016-04-07T08:51:11.047Z,50.7
2016-04-07T08:52:11.050Z,50.7
2016-04-07T08:53:11.053Z,50.02
2016-04-07T08:54:11.040Z,50.29
2016-04-07T08:55:14.683Z,50.29
2016-04-07T08:56:11.061Z,50.38
2016-04-07T08:57:11.048Z,50.29
2016-04-07T08:58:11.050Z,50.29
2016-04-07T08:59:11.069Z,50.57
2016-04-07T09:00:11.056Z,51.24
2016-04-07T09:01:11.059Z,51.05
2016-04-07T09:02:11.046Z,51.12
2016-04-07T09:03:11.048Z,51.15
2016-04-07T09:04:11.051Z,51.5
2016-04-07T09:05:11.053Z,51.6
2016-04-07T09:06:11.056Z,51.43
2016-04-07T09:07:11.090Z,51.89
2016-04-07T09:08:11.061Z,51.6
2016-04-07T09:09:11.064Z,51.79
2016-04-07T09:10:11.067Z,51.7
2016-04-07T09:11:11.054Z,51.31
2016-04-07T09:12:11.058Z,51.12
2016-04-07T09:13:11.060Z,51.41
2016-04-07T09:14:11.063Z,51.5
2016-04-07T09:15:11.065Z,51.12
2016-04-07T09:16:11.068Z,51.12
2016-04-07T09:17:11.071Z,51.21
2016-04-07T09:18:11.073Z,51.79
2016-04-07T09:19:11.076Z,51.5
2016-04-07T09:20:11.078Z,51.6
2016-04-07T09:21:11.082Z,51.98
2016-04-07T09:22:11.108Z,51.89
2016-04-07T09:23:11.147Z,51.7
2016-04-07T09:24:11.186Z,51.89
2016-04-07T09:25:11.209Z,51.5
2016-04-07T09:26:11.654Z,51.31
2016-04-07T09:27:11.272Z,51.21
2016-04-07T09:28:11.289Z,51.12
2016-04-07T09:29:11.304Z,51.21
2016-04-07T09:30:11.320Z,51.5
2016-04-07T09:31:11.321Z,51.21
2016-04-07T09:32:11.346Z,51.31
2016-04-07T09:33:11.338Z,51.7
2016-04-07T09:34:11.345Z,51.7
2016-04-07T09:35:11.352Z,52.17
2016-04-07T09:36:11.360Z,51.79
2016-04-07T09:37:11.365Z,51.76
2016-04-07T09:38:11.370Z,51.95
2016-04-07T09:39:11.375Z,52.08
2016-04-07T09:40:11.364Z,52.34
2016-04-07T09:41:11.368Z,52.15
2016-04-07T09:42:11.388Z,52.43
2016-04-07T09:43:11.375Z,52.43
2016-04-07T09:44:11.395Z,52.91
2016-04-07T09:45:11.398Z,53.1
2016-04-07T09:46:11.385Z,53.1
2016-04-07T09:47:11.388Z,53.2
2016-04-07T09:48:11.375Z,53.39
2016-04-07T09:49:11.378Z,53.1
2016-04-07T09:50:11.397Z,53.1
2016-04-07T09:51:11.383Z,53.29
2016-04-07T09:52:11.402Z,53.2
2016-04-07T09:53:11.388Z,53.2
2016-04-07T09:54:11.391Z,53.39
2016-04-07T09:55:11.457Z,53.39
2016-04-07T09:56:11.397Z,53
2016-04-07T09:57:11.384Z,52.53
2016-04-07T09:58:11.387Z,52.43
2016-04-07T09:59:11.390Z,52.72
2016-04-07T10:00:11.392Z,53.39
2016-04-07T10:01:11.395Z,53
2016-04-07T10:02:11.397Z,52.65
2016-04-07T10:03:11.400Z,51.98
2016-04-07T10:04:11.403Z,51.98
2016-04-07T10:05:11.406Z,51.89
2016-04-07T10:06:11.409Z,51.62
2016-04-07T10:07:11.396Z,51.15
2016-04-07T10:08:11.585Z,50.95
2016-04-07T10:09:11.556Z,50.29
2016-04-07T10:10:11.434Z,50.21
2016-04-07T10:11:11.406Z,49.35
2016-04-07T10:12:11.408Z,49.35
2016-04-07T10:13:11.427Z,48.88
2016-04-07T10:14:11.414Z,48.42
2016-04-07T10:15:11.416Z,48.13
2016-04-07T10:16:11.420Z,48.13
2016-04-07T10:17:11.422Z,47.56
2016-04-07T10:18:11.425Z,47.08
2016-04-07T10:19:11.412Z,47.47
2016-04-07T10:20:11.430Z,46.89
2016-04-07T10:21:11.417Z,46.44
2016-04-07T10:22:11.419Z,46.34
2016-04-07T10:23:11.423Z,46.15
2016-04-07T10:24:11.425Z,45.76
2016-04-07T10:25:11.428Z,45.76
2016-04-07T10:26:11.431Z,45.86
2016-04-07T10:27:11.449Z,45.09
2016-04-07T10:28:11.436Z,45.29
2016-04-07T10:29:11.423Z,44.9
2016-04-07T10:30:11.457Z,44.33
2016-04-07T10:31:11.428Z,44.52
2016-04-07T10:32:11.431Z,44.71
2016-04-07T10:33:11.449Z,44.93
2016-04-07T10:34:11.452Z,44.54
2016-04-07T10:35:11.549Z,44.54
2016-04-07T10:36:11.442Z,44.16
2016-04-07T10:37:11.445Z,44.16
2016-04-07T10:38:11.447Z,43.87
2016-04-07T10:39:11.450Z,43.97
2016-04-07T10:40:11.514Z,43.68
2016-04-07T10:41:11.455Z,43.41
2016-04-07T10:42:11.505Z,42.94
2016-04-07T10:43:11.476Z,42.84
2016-04-07T10:44:11.464Z,42.27
2016-04-07T10:45:11.467Z,41.97
2016-04-07T10:46:11.453Z,42.17
2016-04-07T10:47:11.456Z,41.78
2016-04-07T10:48:11.490Z,41.71
2016-04-07T10:49:11.477Z,41.5
2016-04-07T10:50:11.464Z,41.33
2016-04-07T10:51:11.483Z,41.5
2016-04-07T10:52:11.470Z,41.31
2016-04-07T10:53:11.472Z,41.31
2016-04-07T10:54:11.475Z,40.92
2016-04-07T10:55:25.977Z,40.27
2016-04-07T10:56:11.480Z,40.08
2016-04-07T10:57:11.483Z,39.89
2016-04-07T10:58:11.485Z,39.41
2016-04-07T10:59:11.488Z,39.5
2016-04-07T11:00:11.490Z,38.83
2016-04-07T11:01:11.493Z,39.12
2016-04-07T11:02:11.481Z,39.22
2016-04-07T11:03:11.484Z,39.7
2016-04-07T11:04:11.487Z,39.03
2016-04-07T11:05:11.489Z,39.2
2016-04-07T11:06:11.492Z,39.39
2016-04-07T11:07:11.494Z,39.77
2016-04-07T11:08:11.497Z,39.97
2016-04-07T11:09:11.499Z,40.33
2016-04-07T11:10:11.658Z,40.81
2016-04-07T11:11:11.505Z,41.19
2016-04-07T11:12:11.508Z,41.48
2016-04-07T11:13:11.511Z,41.77
2016-04-07T11:14:11.514Z,42.03
2016-04-07T11:15:11.516Z,41.94
2016-04-07T11:16:11.519Z,42.03
2016-04-07T11:17:11.505Z,42.32
2016-04-07T11:18:11.524Z,42.41
2016-04-07T11:19:11.542Z,42.41
2016-04-07T11:20:11.530Z,43.56
2016-04-07T11:21:11.517Z,43.63
2016-04-07T11:22:11.519Z,43.63
2016-04-07T11:23:11.522Z,44.4
2016-04-07T11:24:11.524Z,44.59
2016-04-07T11:25:11.527Z,44.79
2016-04-07T11:26:11.529Z,44.79
2016-04-07T11:27:11.532Z,44.79
2016-04-07T11:28:11.535Z,44.59
2016-04-07T11:29:11.538Z,44.31
2016-04-07T11:30:11.557Z,44.59
2016-04-07T11:31:11.559Z,44.31
2016-04-07T11:32:11.546Z,44.5
2016-04-07T11:33:11.549Z,44.4
2016-04-07T11:34:11.395Z,44.59
2016-04-07T11:35:11.554Z,44.69
2016-04-07T11:36:11.557Z,44.4
2016-04-07T11:37:11.543Z,44.4
2016-04-07T11:38:11.546Z,45.26
2016-04-07T11:39:11.549Z,44.69
2016-04-07T11:40:11.584Z,44.98
2016-04-07T11:41:11.554Z,45.07
2016-04-07T11:42:11.573Z,45.07
2016-04-07T11:43:11.592Z,45.17
2016-04-07T11:44:11.562Z,45.45
2016-04-07T11:45:11.597Z,45.65
2016-04-07T11:46:11.568Z,45.45
2016-04-07T11:47:11.586Z,44.79
2016-04-07T11:48:11.573Z,44.4
2016-04-07T11:49:11.576Z,44.52
2016-04-07T11:50:11.578Z,44.13
2016-04-07T11:51:11.581Z,44.23
2016-04-07T11:52:11.584Z,43.85
2016-04-07T11:53:11.586Z,44.23
2016-04-07T11:54:11.589Z,43.49
2016-04-07T11:55:11.624Z,43.87
2016-04-07T11:56:11.595Z,43.59
2016-04-07T11:57:11.441Z,43.77
2016-04-07T11:58:11.600Z,43.68
2016-04-07T11:59:11.603Z,43.77
2016-04-07T12:00:11.590Z,43.49
2016-04-07T12:01:11.593Z,43.2
2016-04-07T12:02:11.627Z,43.01
2016-04-07T12:03:11.598Z,42.72
2016-04-07T12:04:11.601Z,42.24
2016-04-07T12:05:11.604Z,41.96
2016-04-07T12:06:11.606Z,41.5
2016-04-07T12:07:11.609Z,41.19
2016-04-07T12:08:11.612Z,41.19
2016-04-07T12:09:11.614Z,41.28
2016-04-07T12:10:11.648Z,41.19
2016-04-07T12:11:11.619Z,41.19
2016-04-07T12:12:11.637Z,40.81
2016-04-07T12:13:11.625Z,40.9
2016-04-07T12:14:11.628Z,41.09
2016-04-07T12:15:11.631Z,40.81
2016-04-07T12:16:11.633Z,40.71
2016-04-07T12:17:11.636Z,40.52
2016-04-07T12:18:11.638Z,40.31
2016-04-07T12:19:11.625Z,40.21
2016-04-07T12:20:11.644Z,40.59
2016-04-07T12:21:11.646Z,40.95
2016-04-07T12:22:11.649Z,40.67
2016-04-07T12:23:11.635Z,41.51
2016-04-07T12:24:11.654Z,41.61
2016-04-07T12:25:11.657Z,42.08
2016-04-07T12:26:11.644Z,42.37
2016-04-07T12:27:11.647Z,42.56
2016-04-07T12:28:11.649Z,42.85
2016-04-07T12:29:11.652Z,43.12
2016-04-07T12:30:11.655Z,43.69
2016-04-07T12:31:11.657Z,44.45
2016-04-07T12:32:11.660Z,44.65
2016-04-07T12:33:11.662Z,45.01
2016-04-07T12:34:11.665Z,45.2
2016-04-07T12:35:11.668Z,45.77
2016-04-07T12:36:11.671Z,45.87
2016-04-07T12:37:11.658Z,46.15
2016-04-07T12:38:11.676Z,47.11
2016-04-07T12:39:11.663Z,47.37
2016-04-07T12:40:11.681Z,46.89
2016-04-07T12:41:11.668Z,47.18
2016-04-07T12:42:11.671Z,46.7
2016-04-07T12:43:11.690Z,47.18
2016-04-07T12:44:11.677Z,46.8
2016-04-07T12:45:11.679Z,47.08
2016-04-07T12:46:11.682Z,47.11
2016-04-07T12:47:11.684Z,47.39
2016-04-07T12:48:11.687Z,46.72
2016-04-07T12:49:11.689Z,46.92
2016-04-07T12:50:11.692Z,46.82
2016-04-07T12:51:11.695Z,46.53
2016-04-07T12:52:11.697Z,46.25
2016-04-07T12:53:11.701Z,46.15
2016-04-07T12:54:11.703Z,46.06
2016-04-07T12:55:11.706Z,45.87
2016-04-07T12:56:11.712Z,46.06
2016-04-07T12:57:11.714Z,45.96